Home > Products > Valid Products > TAF

000
FTUS41 KBOX 061724
TAFBDL
TAF
KBDL 061724Z 0618/0724 15004KT P6SM SCT050
     FM070200 18006KT P6SM BKN110
     FM070600 17004KT P6SM BKN020
     FM070800 VRB03KT P6SM BKN010
     FM071300 17007KT P6SM BKN040
     FM071900 18010KT P6SM BKN050=



000
FTUS41 KBOX 061724
TAFPVD
TAF
KPVD 061724Z 0618/0718 17010KT P6SM BKN250
     FM070100 18006KT P6SM FEW100
     FM070400 18005KT P6SM BKN100
     FM070800 16004KT 5SM BR BKN020
     FM071200 16004KT P6SM BKN008
     FM071400 16009KT P6SM BKN020=



000
FTUS41 KBOX 061724
TAFACK
TAF
KACK 061724Z 0618/0718 24010KT P6SM BKN250
     FM070000 20006KT P6SM FEW250
     FM070500 18006KT 2SM BR SCT010 BKN090
     FM071100 15007KT P6SM BKN008
     FM071300 15008KT P6SM BKN050
     FM071500 16009KT P6SM BKN020=



000
FTUS41 KBOX 061724
TAFBAF
TAF
KBAF 061724Z 0618/0718 19004KT P6SM SCT050
     FM070100 19006KT P6SM SCT150
     FM070300 18004KT P6SM BKN100
     FM070600 VRB03KT P6SM BKN020
     FM070900 VRB03KT 5SM BR BKN010
     FM071100 VRB03KT P6SM BKN010
     FM071300 15004KT P6SM BKN040=



000
FTUS41 KBOX 061724
TAFORH
TAF
KORH 061724Z 0618/0718 22005KT P6SM SCT050
     FM070000 20007KT P6SM FEW250
     FM070500 22006KT P6SM BKN110
     FM070900 21004KT 2SM BR BKN010
     FM071100 21004KT P6SM BKN010
     FM071300 18005KT P6SM BKN020
     FM071700 18008KT P6SM BKN025=



000
FTUS41 KBOX 061724
TAFBOS
TAF
KBOS 061724Z 0618/0724 12012KT P6SM SCT050
     FM062300 17009KT P6SM SCT050
     FM070100 19008KT P6SM FEW250
     FM071000 17005KT P6SM BKN090
     FM071300 16006KT P6SM BKN050=



000
FTUS41 KBOX 061724
TAFBOS
TAF
KBOS 061724Z 0618/0724 12012KT P6SM SCT050
     FM062300 17009KT P6SM SCT050
     FM070100 19008KT P6SM FEW250
     FM071000 17005KT P6SM BKN090
     FM071300 16006KT P6SM BKN050=



000
FTUS41 KBOX 061724
TAFBDL
TAF
KBDL 061724Z 0618/0724 15004KT P6SM SCT050
     FM070200 18006KT P6SM BKN110
     FM070600 17004KT P6SM BKN020
     FM070800 VRB03KT P6SM BKN010
     FM071300 17007KT P6SM BKN040
     FM071900 18010KT P6SM BKN050=



000
FTUS41 KBOX 061724
TAFACK
TAF
KACK 061724Z 0618/0718 24010KT P6SM BKN250
     FM070000 20006KT P6SM FEW250
     FM070500 18006KT 2SM BR SCT010 BKN090
     FM071100 15007KT P6SM BKN008
     FM071300 15008KT P6SM BKN050
     FM071500 16009KT P6SM BKN020=



000
FTUS41 KBOX 061724
TAFBAF
TAF
KBAF 061724Z 0618/0718 19004KT P6SM SCT050
     FM070100 19006KT P6SM SCT150
     FM070300 18004KT P6SM BKN100
     FM070600 VRB03KT P6SM BKN020
     FM070900 VRB03KT 5SM BR BKN010
     FM071100 VRB03KT P6SM BKN010
     FM071300 15004KT P6SM BKN040=



000
FTUS41 KBOX 061724
TAFPVD
TAF
KPVD 061724Z 0618/0718 17010KT P6SM BKN250
     FM070100 18006KT P6SM FEW100
     FM070400 18005KT P6SM BKN100
     FM070800 16004KT 5SM BR BKN020
     FM071200 16004KT P6SM BKN008
     FM071400 16009KT P6SM BKN020=



000
FTUS41 KBOX 061724
TAFORH
TAF
KORH 061724Z 0618/0718 22005KT P6SM SCT050
     FM070000 20007KT P6SM FEW250
     FM070500 22006KT P6SM BKN110
     FM070900 21004KT 2SM BR BKN010
     FM071100 21004KT P6SM BKN010
     FM071300 18005KT P6SM BKN020
     FM071700 18008KT P6SM BKN025=



000
FTUS41 KBOX 061123
TAFORH
TAF
KORH 061123Z 0612/0712 30005KT P6SM FEW250
     FM061900 22006KT P6SM SCT250
     FM070500 22005KT P6SM BKN100=



000
FTUS41 KBOX 061123
TAFBDL
TAF
KBDL 061123Z 0612/0718 VRB03KT P6SM FEW250
     FM061900 19006KT P6SM SCT250
     FM070400 18004KT P6SM BKN100
     FM071100 16004KT P6SM BKN010
     FM071400 17006KT P6SM BKN035=



000
FTUS41 KBOX 061123
TAFBAF
TAF
KBAF 061123Z 0612/0712 VRB03KT P6SM SCT250
     FM062000 20006KT P6SM SCT250
     FM070400 VRB03KT P6SM BKN100
     FM071100 17004KT P6SM BKN010=



000
FTUS41 KBOX 061123
TAFACK
TAF
KACK 061123Z 0612/0712 26006KT P6SM SCT250
     FM062000 22007KT P6SM FEW250
     FM070300 18006KT P6SM SCT250
     FM070700 16005KT P6SM BKN080=



000
FTUS41 KBOX 061123
TAFPVD
TAF
KPVD 061123Z 0612/0712 VRB03KT P6SM SCT250
     FM061600 18006KT P6SM SCT250
     FM061900 18010KT P6SM SCT250
     FM070100 19005KT P6SM SCT250=



000
FTUS41 KBOX 061123
TAFBOS
TAF
KBOS 061123Z 0612/0718 VRB03KT P6SM FEW250
     FM061300 10008KT P6SM FEW250
     FM062300 18008KT P6SM FEW250
     FM070900 19005KT P6SM BKN090
     FM071400 14006KT P6SM BKN070=



000
FTUS41 KBOX 061123
TAFACK
TAF
KACK 061123Z 0612/0712 26006KT P6SM SCT250
     FM062000 22007KT P6SM FEW250
     FM070300 18006KT P6SM SCT250
     FM070700 16005KT P6SM BKN080=



000
FTUS41 KBOX 061123
TAFBDL
TAF
KBDL 061123Z 0612/0718 VRB03KT P6SM FEW250
     FM061900 19006KT P6SM SCT250
     FM070400 18004KT P6SM BKN100
     FM071100 16004KT P6SM BKN010
     FM071400 17006KT P6SM BKN035=



000
FTUS41 KBOX 061123
TAFORH
TAF
KORH 061123Z 0612/0712 30005KT P6SM FEW250
     FM061900 22006KT P6SM SCT250
     FM070500 22005KT P6SM BKN100=



000
FTUS41 KBOX 061123
TAFBDL
TAF
KBDL 061123Z 0612/0718 VRB03KT P6SM FEW250
     FM061900 19006KT P6SM SCT250
     FM070400 18004KT P6SM BKN100
     FM071100 16004KT P6SM BKN010
     FM071400 17006KT P6SM BKN035=



000
FTUS41 KBOX 061123
TAFBOS
TAF
KBOS 061123Z 0612/0718 VRB03KT P6SM FEW250
     FM061300 10008KT P6SM FEW250
     FM062300 18008KT P6SM FEW250
     FM070900 19005KT P6SM BKN090
     FM071400 14006KT P6SM BKN070=



000
FTUS41 KBOX 061123
TAFBAF
TAF
KBAF 061123Z 0612/0712 VRB03KT P6SM SCT250
     FM062000 20006KT P6SM SCT250
     FM070400 VRB03KT P6SM BKN100
     FM071100 17004KT P6SM BKN010=



000
FTUS41 KBOX 061123
TAFBOS
TAF
KBOS 061123Z 0612/0718 VRB03KT P6SM FEW250
     FM061300 10008KT P6SM FEW250
     FM062300 18008KT P6SM FEW250
     FM070900 19005KT P6SM BKN090
     FM071400 14006KT P6SM BKN070=



000
FTUS41 KBOX 061123
TAFACK
TAF
KACK 061123Z 0612/0712 26006KT P6SM SCT250
     FM062000 22007KT P6SM FEW250
     FM070300 18006KT P6SM SCT250
     FM070700 16005KT P6SM BKN080=



000
FTUS41 KBOX 061123
TAFPVD
TAF
KPVD 061123Z 0612/0712 VRB03KT P6SM SCT250
     FM061600 18006KT P6SM SCT250
     FM061900 18010KT P6SM SCT250
     FM070100 19005KT P6SM SCT250=



000
FTUS41 KBOX 061123
TAFORH
TAF
KORH 061123Z 0612/0712 30005KT P6SM FEW250
     FM061900 22006KT P6SM SCT250
     FM070500 22005KT P6SM BKN100=



000
FTUS41 KBOX 061123
TAFBAF
TAF
KBAF 061123Z 0612/0712 VRB03KT P6SM SCT250
     FM062000 20006KT P6SM SCT250
     FM070400 VRB03KT P6SM BKN100
     FM071100 17004KT P6SM BKN010=



000
FTUS41 KBOX 061123
TAFBAF
TAF
KBAF 061123Z 0612/0712 VRB03KT P6SM SCT250
     FM062000 20006KT P6SM SCT250
     FM070400 VRB03KT P6SM BKN100
     FM071100 17004KT P6SM BKN010=



000
FTUS41 KBOX 061123
TAFPVD
TAF
KPVD 061123Z 0612/0712 VRB03KT P6SM SCT250
     FM061600 18006KT P6SM SCT250
     FM061900 18010KT P6SM SCT250
     FM070100 19005KT P6SM SCT250=



000
FTUS41 KBOX 061123
TAFORH
TAF
KORH 061123Z 0612/0712 30005KT P6SM FEW250
     FM061900 22006KT P6SM SCT250
     FM070500 22005KT P6SM BKN100=



000
FTUS41 KBOX 061123
TAFBDL
TAF
KBDL 061123Z 0612/0718 VRB03KT P6SM FEW250
     FM061900 19006KT P6SM SCT250
     FM070400 18004KT P6SM BKN100
     FM071100 16004KT P6SM BKN010
     FM071400 17006KT P6SM BKN035=



000
FTUS41 KBOX 061123
TAFBOS
TAF
KBOS 061123Z 0612/0718 VRB03KT P6SM FEW250
     FM061300 10008KT P6SM FEW250
     FM062300 18008KT P6SM FEW250
     FM070900 19005KT P6SM BKN090
     FM071400 14006KT P6SM BKN070=



000
FTUS41 KBOX 060840 AAB
TAFBAF
TAF AMD
KBAF 060840Z 0609/0706 00000KT 2SM BR FEW250
     FM061200 00000KT P6SM FEW250
     FM062000 21006KT P6SM SCT060
     FM070300 19004KT P6SM BKN100=



000
FTUS41 KBOX 060821 AAA
TAFBOS
TAF AMD
KBOS 060821Z 0608/0712 27005KT P6SM FEW250
     FM061400 12008KT P6SM SCT250
     FM062000 13009KT P6SM SCT050
     FM070000 19007KT P6SM FEW250
     FM070900 19005KT P6SM BKN090=



000
FTUS41 KBOX 060821 AAA
TAFBAF
TAF AMD
KBAF 060821Z 0608/0706 00000KT 6SM BR FEW250
     FM061200 00000KT P6SM FEW250
     FM062000 21006KT P6SM SCT060
     FM070300 19004KT P6SM BKN100=



000
FTUS41 KBOX 060821 AAA
TAFBDL
TAF AMD
KBDL 060821Z 0608/0712 00000KT P6SM FEW250
     FM061700 21006KT P6SM SCT250
     FM070200 18006KT P6SM BKN100=



000
FTUS41 KBOX 060821 AAA
TAFACK
TAF AMD
KACK 060821Z 0608/0706 26007KT P6SM FEW250
     FM062300 20007KT P6SM FEW250=



000
FTUS41 KBOX 060821 AAA
TAFBDL
TAF AMD
KBDL 060821Z 0608/0712 00000KT P6SM FEW250
     FM061700 21006KT P6SM SCT250
     FM070200 18006KT P6SM BKN100=



000
FTUS41 KBOX 060821 AAA
TAFPVD
TAF AMD
KPVD 060821Z 0608/0706 00000KT P6SM FEW250
     FM061600 21006KT P6SM SCT250
     FM061900 20010KT P6SM SCT250
     FM070100 19006KT P6SM SCT250
     FM070400 19004KT P6SM BKN100=



000
FTUS41 KBOX 060821 AAA
TAFPVD
TAF AMD
KPVD 060821Z 0608/0706 00000KT P6SM FEW250
     FM061600 21006KT P6SM SCT250
     FM061900 20010KT P6SM SCT250
     FM070100 19006KT P6SM SCT250
     FM070400 19004KT P6SM BKN100=



000
FTUS41 KBOX 060821 AAA
TAFORH
TAF AMD
KORH 060821Z 0608/0706 28006KT P6SM FEW250
     FM062100 21007KT P6SM SCT250
     FM070500 22005KT P6SM BKN100=



000
FTUS41 KBOX 060821 AAA
TAFBAF
TAF AMD
KBAF 060821Z 0608/0706 00000KT 6SM BR FEW250
     FM061200 00000KT P6SM FEW250
     FM062000 21006KT P6SM SCT060
     FM070300 19004KT P6SM BKN100=



000
FTUS41 KBOX 060821 AAA
TAFORH
TAF AMD
KORH 060821Z 0608/0706 28006KT P6SM FEW250
     FM062100 21007KT P6SM SCT250
     FM070500 22005KT P6SM BKN100=



000
FTUS41 KBOX 060821 AAA
TAFBAF
TAF AMD
KBAF 060821Z 0608/0706 00000KT 6SM BR FEW250
     FM061200 00000KT P6SM FEW250
     FM062000 21006KT P6SM SCT060
     FM070300 19004KT P6SM BKN100=



000
FTUS41 KBOX 060821 AAA
TAFBOS
TAF AMD
KBOS 060821Z 0608/0712 27005KT P6SM FEW250
     FM061400 12008KT P6SM SCT250
     FM062000 13009KT P6SM SCT050
     FM070000 19007KT P6SM FEW250
     FM070900 19005KT P6SM BKN090=



000
FTUS41 KBOX 060821 AAA
TAFACK
TAF AMD
KACK 060821Z 0608/0706 26007KT P6SM FEW250
     FM062300 20007KT P6SM FEW250=



000
FTUS41 KBOX 060821 AAA
TAFBOS
TAF AMD
KBOS 060821Z 0608/0712 27005KT P6SM FEW250
     FM061400 12008KT P6SM SCT250
     FM062000 13009KT P6SM SCT050
     FM070000 19007KT P6SM FEW250
     FM070900 19005KT P6SM BKN090=



000
FTUS41 KBOX 060821 AAA
TAFBDL
TAF AMD
KBDL 060821Z 0608/0712 00000KT P6SM FEW250
     FM061700 21006KT P6SM SCT250
     FM070200 18006KT P6SM BKN100=



000
FTUS41 KBOX 060821 AAA
TAFACK
TAF AMD
KACK 060821Z 0608/0706 26007KT P6SM FEW250
     FM062300 20007KT P6SM FEW250=



000
FTUS41 KBOX 060821 AAA
TAFPVD
TAF AMD
KPVD 060821Z 0608/0706 00000KT P6SM FEW250
     FM061600 21006KT P6SM SCT250
     FM061900 20010KT P6SM SCT250
     FM070100 19006KT P6SM SCT250
     FM070400 19004KT P6SM BKN100=



000
FTUS41 KBOX 060821 AAA
TAFORH
TAF AMD
KORH 060821Z 0608/0706 28006KT P6SM FEW250
     FM062100 21007KT P6SM SCT250
     FM070500 22005KT P6SM BKN100=



000
FTUS41 KBOX 060536
TAFBOS
TAF
KBOS 060536Z 0606/0712 24007KT P6SM SKC
     FM061200 00000KT P6SM FEW250
     FM061700 14006KT P6SM SCT250
     FM062000 14007KT P6SM SCT050
     FM070100 19007KT P6SM FEW250
     FM070900 19005KT P6SM BKN090=



000
FTUS41 KBOX 060536
TAFBAF
TAF
KBAF 060536Z 0606/0706 00000KT P6SM SKC
     FM060900 00000KT 3SM BR FEW250
     FM061200 00000KT P6SM FEW250
     FM062000 20006KT P6SM SCT060
     FM070300 19004KT P6SM BKN100=



000
FTUS41 KBOX 060536
TAFACK
TAF
KACK 060536Z 0606/0706 26009KT P6SM SKC
     FM062100 21008KT P6SM FEW250=



000
FTUS41 KBOX 060536
TAFORH
TAF
KORH 060536Z 0606/0706 25007KT P6SM SKC
     FM070500 22005KT P6SM BKN100=



000
FTUS41 KBOX 060536
TAFPVD
TAF
KPVD 060536Z 0606/0706 27009KT P6SM SKC
     FM060900 00000KT P6SM FEW250
     FM061600 20006KT P6SM SCT250
     FM070400 19004KT P6SM BKN100=



000
FTUS41 KBOX 060536
TAFBDL
TAF
KBDL 060536Z 0606/0712 00000KT P6SM SCT250
     FM061800 20006KT P6SM SCT250
     FM070200 18006KT P6SM BKN100=



000
FTUS41 KBOX 060536
TAFBDL
TAF
KBDL 060536Z 0606/0712 00000KT P6SM SCT250
     FM061800 20006KT P6SM SCT250
     FM070200 18006KT P6SM BKN100=



000
FTUS41 KBOX 060536
TAFACK
TAF
KACK 060536Z 0606/0706 26009KT P6SM SKC
     FM062100 21008KT P6SM FEW250=



000
FTUS41 KBOX 060536
TAFBAF
TAF
KBAF 060536Z 0606/0706 00000KT P6SM SKC
     FM060900 00000KT 3SM BR FEW250
     FM061200 00000KT P6SM FEW250
     FM062000 20006KT P6SM SCT060
     FM070300 19004KT P6SM BKN100=



000
FTUS41 KBOX 060536
TAFPVD
TAF
KPVD 060536Z 0606/0706 27009KT P6SM SKC
     FM060900 00000KT P6SM FEW250
     FM061600 20006KT P6SM SCT250
     FM070400 19004KT P6SM BKN100=



000
FTUS41 KBOX 060536
TAFBOS
TAF
KBOS 060536Z 0606/0712 24007KT P6SM SKC
     FM061200 00000KT P6SM FEW250
     FM061700 14006KT P6SM SCT250
     FM062000 14007KT P6SM SCT050
     FM070100 19007KT P6SM FEW250
     FM070900 19005KT P6SM BKN090=



000
FTUS41 KBOX 060536
TAFACK
TAF
KACK 060536Z 0606/0706 26009KT P6SM SKC
     FM062100 21008KT P6SM FEW250=



000
FTUS41 KBOX 060536
TAFORH
TAF
KORH 060536Z 0606/0706 25007KT P6SM SKC
     FM070500 22005KT P6SM BKN100=



000
FTUS41 KBOX 060536
TAFBDL
TAF
KBDL 060536Z 0606/0712 00000KT P6SM SCT250
     FM061800 20006KT P6SM SCT250
     FM070200 18006KT P6SM BKN100=



000
FTUS41 KBOX 060222 AAA
TAFACK
TAF AMD
KACK 060222Z 0602/0624 24008KT P6SM SKC
     FM061400 21010KT P6SM FEW250=



000
FTUS41 KBOX 060222 AAA
TAFORH
TAF AMD
KORH 060222Z 0602/0624 27007KT P6SM SKC
     FM061100 VRB03KT P6SM FEW250
     FM061900 22006KT P6SM SCT250=



000
FTUS41 KBOX 060222 AAA
TAFPVD
TAF AMD
KPVD 060222Z 0602/0624 24007KT P6SM SKC
     FM061100 VRB03KT P6SM FEW250
     FM061600 18008KT P6SM SCT250=



000
FTUS41 KBOX 060222 AAA
TAFBDL
TAF AMD
KBDL 060222Z 0602/0706 26006KT P6SM SKC
     FM060700 00000KT 2SM BR FEW250
     FM061000 VRB03KT P6SM FEW250
     FM061900 19006KT P6SM SCT250
     FM070300 17005KT P6SM BKN100=



000
FTUS41 KBOX 060222 AAA
TAFBAF
TAF AMD
KBAF 060222Z 0602/0624 00000KT P6SM SKC
     FM060700 00000KT 2SM BR FEW250
     FM061000 VRB03KT P6SM FEW250
     FM061900 19006KT P6SM SCT070=



000
FTUS41 KBOX 060222 AAA
TAFBOS
TAF AMD
KBOS 060222Z 0602/0706 24007KT P6SM SKC
     FM061200 28006KT P6SM FEW250
     FM061500 11008KT P6SM SCT050
     FM062000 14010KT P6SM FEW050
     FM062300 18008KT P6SM FEW250=



000
FTUS41 KBOX 060222 AAA
TAFPVD
TAF AMD
KPVD 060222Z 0602/0624 24007KT P6SM SKC
     FM061100 VRB03KT P6SM FEW250
     FM061600 18008KT P6SM SCT250=



000
FTUS41 KBOX 060222 AAA
TAFBOS
TAF AMD
KBOS 060222Z 0602/0706 24007KT P6SM SKC
     FM061200 28006KT P6SM FEW250
     FM061500 11008KT P6SM SCT050
     FM062000 14010KT P6SM FEW050
     FM062300 18008KT P6SM FEW250=



000
FTUS41 KBOX 060222 AAA
TAFORH
TAF AMD
KORH 060222Z 0602/0624 27007KT P6SM SKC
     FM061100 VRB03KT P6SM FEW250
     FM061900 22006KT P6SM SCT250=



000
FTUS41 KBOX 060222 AAA
TAFPVD
TAF AMD
KPVD 060222Z 0602/0624 24007KT P6SM SKC
     FM061100 VRB03KT P6SM FEW250
     FM061600 18008KT P6SM SCT250=



000
FTUS41 KBOX 060222 AAA
TAFACK
TAF AMD
KACK 060222Z 0602/0624 24008KT P6SM SKC
     FM061400 21010KT P6SM FEW250=



000
FTUS41 KBOX 060222 AAA
TAFBAF
TAF AMD
KBAF 060222Z 0602/0624 00000KT P6SM SKC
     FM060700 00000KT 2SM BR FEW250
     FM061000 VRB03KT P6SM FEW250
     FM061900 19006KT P6SM SCT070=



000
FTUS41 KBOX 060222 AAA
TAFBDL
TAF AMD
KBDL 060222Z 0602/0706 26006KT P6SM SKC
     FM060700 00000KT 2SM BR FEW250
     FM061000 VRB03KT P6SM FEW250
     FM061900 19006KT P6SM SCT250
     FM070300 17005KT P6SM BKN100=



000
FTUS41 KBOX 052320
TAFORH
TAF
KORH 052320Z 0600/0624 25006KT P6SM FEW250
     FM061100 VRB03KT P6SM FEW250
     FM061900 22006KT P6SM SCT250=



000
FTUS41 KBOX 052320
TAFBDL
TAF
KBDL 052320Z 0600/0706 VRB03KT P6SM SKC
     FM060700 00000KT 2SM BR FEW250
     FM061000 VRB03KT P6SM FEW250
     FM061900 19006KT P6SM SCT250
     FM070300 17005KT P6SM BKN100=



000
FTUS41 KBOX 052320
TAFBAF
TAF
KBAF 052320Z 0600/0624 VRB03KT P6SM SKC
     FM060700 00000KT 2SM BR FEW250
     FM061000 VRB03KT P6SM FEW250
     FM061900 19006KT P6SM SCT070=



000
FTUS41 KBOX 052320
TAFBOS
TAF
KBOS 052320Z 0600/0706 24007KT P6SM FEW250
     FM061200 28006KT P6SM FEW250
     FM061500 11008KT P6SM SCT050
     FM062000 14010KT P6SM FEW050
     FM062300 18008KT P6SM FEW250=



000
FTUS41 KBOX 052320
TAFPVD
TAF
KPVD 052320Z 0600/0624 24007KT P6SM SKC
     FM061100 VRB03KT P6SM FEW250
     FM061600 18008KT P6SM SCT250=



000
FTUS41 KBOX 052320
TAFACK
TAF
KACK 052320Z 0600/0624 23009KT P6SM SKC
     FM060500 26005KT P6SM FEW250
     FM061400 21010KT P6SM FEW250=



000
FTUS41 KBOX 052320
TAFPVD
TAF
KPVD 052320Z 0600/0624 24007KT P6SM SKC
     FM061100 VRB03KT P6SM FEW250
     FM061600 18008KT P6SM SCT250=



000
FTUS41 KBOX 052320
TAFACK
TAF
KACK 052320Z 0600/0624 23009KT P6SM SKC
     FM060500 26005KT P6SM FEW250
     FM061400 21010KT P6SM FEW250=



000
FTUS41 KBOX 052320
TAFBOS
TAF
KBOS 052320Z 0600/0706 24007KT P6SM FEW250
     FM061200 28006KT P6SM FEW250
     FM061500 11008KT P6SM SCT050
     FM062000 14010KT P6SM FEW050
     FM062300 18008KT P6SM FEW250=



000
FTUS41 KBOX 052320
TAFORH
TAF
KORH 052320Z 0600/0624 25006KT P6SM FEW250
     FM061100 VRB03KT P6SM FEW250
     FM061900 22006KT P6SM SCT250=



000
FTUS41 KBOX 052320
TAFBDL
TAF
KBDL 052320Z 0600/0706 VRB03KT P6SM SKC
     FM060700 00000KT 2SM BR FEW250
     FM061000 VRB03KT P6SM FEW250
     FM061900 19006KT P6SM SCT250
     FM070300 17005KT P6SM BKN100=



000
FTUS41 KBOX 052320
TAFBAF
TAF
KBAF 052320Z 0600/0624 VRB03KT P6SM SKC
     FM060700 00000KT 2SM BR FEW250
     FM061000 VRB03KT P6SM FEW250
     FM061900 19006KT P6SM SCT070=



000
FTUS41 KBOX 052116 AAA
TAFACK
TAF AMD
KACK 052116Z 0521/0618 23008KT P6SM FEW050=



000
FTUS41 KBOX 052116 AAA
TAFACK
TAF AMD
KACK 052116Z 0521/0618 23008KT P6SM FEW050=



000
FTUS41 KBOX 052115 AAA
TAFPVD
TAF AMD
KPVD 052115Z 0521/0618 27008KT P6SM SCT050
     FM060200 VRB03KT P6SM SKC=



000
FTUS41 KBOX 052115 AAA
TAFPVD
TAF AMD
KPVD 052115Z 0521/0618 27008KT P6SM SCT050
     FM060200 VRB03KT P6SM SKC=



000
FTUS41 KBOX 052115 AAA
TAFBDL
TAF AMD
KBDL 052115Z 0521/0624 28007KT P6SM SCT060
     FM060200 22004KT P6SM FEW250
     FM060500 00000KT 6SM BR SKC=



000
FTUS41 KBOX 052019 AAA
TAFBOS
TAF AMD
KBOS 052019Z 0520/0624 28008KT P6SM SCT060
     FM060500 24004KT P6SM FEW250
     FM061600 10004KT P6SM FEW250=



000
FTUS41 KBOX 052019 AAA
TAFBOS
TAF AMD
KBOS 052019Z 0520/0624 28008KT P6SM SCT060
     FM060500 24004KT P6SM FEW250
     FM061600 10004KT P6SM FEW250=



000
FTUS41 KBOX 052019 AAA
TAFBOS
TAF AMD
KBOS 052019Z 0520/0624 28008KT P6SM SCT060
     FM060500 24004KT P6SM FEW250
     FM061600 10004KT P6SM FEW250=



000
FTUS41 KBOX 052019 AAA
TAFBOS
TAF AMD
KBOS 052019Z 0520/0624 28008KT P6SM SCT060
     FM060500 24004KT P6SM FEW250
     FM061600 10004KT P6SM FEW250=



000
FTUS41 KBOX 051722
TAFORH
TAF
KORH 051722Z 0518/0618 VRB05KT P6SM SCT050=



000
FTUS41 KBOX 051722
TAFPVD
TAF
KPVD 051722Z 0518/0618 VRB06KT P6SM SCT050=



000
FTUS41 KBOX 051722
TAFBAF
TAF
KBAF 051722Z 0518/0618 VRB05KT P6SM SCT050
     FM060200 00000KT 6SM BR SKC=



000
FTUS41 KBOX 051722
TAFBDL
TAF
KBDL 051722Z 0518/0624 VRB05KT P6SM SCT040
     FM060200 22004KT P6SM FEW250
     FM060500 00000KT 6SM BR SKC=



000
FTUS41 KBOX 051722
TAFBOS
TAF
KBOS 051722Z 0518/0624 VRB04KT P6SM FEW060 FEW250
     FM052000 14008KT P6SM FEW060 SCT150
     FM052300 20006KT P6SM FEW070
     FM060500 26004KT P6SM FEW250
     FM061600 10004KT P6SM FEW250=



000
FTUS41 KBOX 051722
TAFACK
TAF
KACK 051722Z 0518/0618 24011KT P6SM FEW050=



000
FTUS41 KBOX 051722
TAFPVD
TAF
KPVD 051722Z 0518/0618 VRB06KT P6SM SCT050=



000
FTUS41 KBOX 051722
TAFACK
TAF
KACK 051722Z 0518/0618 24011KT P6SM FEW050=



000
FTUS41 KBOX 051722
TAFORH
TAF
KORH 051722Z 0518/0618 VRB05KT P6SM SCT050=



000
FTUS41 KBOX 051722
TAFBOS
TAF
KBOS 051722Z 0518/0624 VRB04KT P6SM FEW060 FEW250
     FM052000 14008KT P6SM FEW060 SCT150
     FM052300 20006KT P6SM FEW070
     FM060500 26004KT P6SM FEW250
     FM061600 10004KT P6SM FEW250=



000
FTUS41 KBOX 051722
TAFPVD
TAF
KPVD 051722Z 0518/0618 VRB06KT P6SM SCT050=



000
FTUS41 KBOX 051722
TAFACK
TAF
KACK 051722Z 0518/0618 24011KT P6SM FEW050=



000
FTUS41 KBOX 051722
TAFBDL
TAF
KBDL 051722Z 0518/0624 VRB05KT P6SM SCT040
     FM060200 22004KT P6SM FEW250
     FM060500 00000KT 6SM BR SKC=



000
FTUS41 KBOX 051722
TAFBAF
TAF
KBAF 051722Z 0518/0618 VRB05KT P6SM SCT050
     FM060200 00000KT 6SM BR SKC=



000
FTUS41 KBOX 051722
TAFORH
TAF
KORH 051722Z 0518/0618 VRB05KT P6SM SCT050=



000
FTUS41 KBOX 051722
TAFPVD
TAF
KPVD 051722Z 0518/0618 VRB06KT P6SM SCT050=



000
FTUS41 KBOX 051722
TAFACK
TAF
KACK 051722Z 0518/0618 24011KT P6SM FEW050=



000
FTUS41 KBOX 051722
TAFORH
TAF
KORH 051722Z 0518/0618 VRB05KT P6SM SCT050=



000
FTUS41 KBOX 051722
TAFBOS
TAF
KBOS 051722Z 0518/0624 VRB04KT P6SM FEW060 FEW250
     FM052000 14008KT P6SM FEW060 SCT150
     FM052300 20006KT P6SM FEW070
     FM060500 26004KT P6SM FEW250
     FM061600 10004KT P6SM FEW250=



000
FTUS41 KBOX 051514 AAA
TAFBDL
TAF AMD
KBDL 051514Z 0515/0618 VRB03KT P6SM SCT040
     FM052100 28006KT P6SM FEW250
     FM060200 22004KT P6SM FEW250
     FM060500 00000KT 6SM BR SKC=



000
FTUS41 KBOX 051514 AAA
TAFBAF
TAF AMD
KBAF 051514Z 0515/0612 00000KT P6SM SCT250
     FM052000 30006KT P6SM FEW060 FEW250
     FM060200 00000KT 6SM BR SKC=



000
FTUS41 KBOX 051514 AAA
TAFACK
TAF AMD
KACK 051514Z 0515/0612 24011KT P6SM FEW250=



000
FTUS41 KBOX 051514 AAA
TAFBAF
TAF AMD
KBAF 051514Z 0515/0612 00000KT P6SM SCT250
     FM052000 30006KT P6SM FEW060 FEW250
     FM060200 00000KT 6SM BR SKC=



000
FTUS41 KBOX 051514 AAA
TAFBOS
TAF AMD
KBOS 051514Z 0515/0618 27007KT P6SM SCT250
     FM051600 10004KT P6SM FEW060 FEW250
     FM052000 14008KT P6SM FEW060 SCT150
     FM052300 20006KT P6SM FEW070
     FM060500 26004KT P6SM FEW250
     FM061600 10004KT P6SM FEW250=



000
FTUS41 KBOX 051514 AAA
TAFPVD
TAF AMD
KPVD 051514Z 0515/0612 23006KT P6SM FEW060 SCT250=



000
FTUS41 KBOX 051514 AAA
TAFORH
TAF AMD
KORH 051514Z 0515/0612 27010KT P6SM SCT250=



000
FTUS41 KBOX 051514 AAA
TAFPVD
TAF AMD
KPVD 051514Z 0515/0612 23006KT P6SM FEW060 SCT250=



000
FTUS41 KBOX 051514 AAA
TAFBDL
TAF AMD
KBDL 051514Z 0515/0618 VRB03KT P6SM SCT040
     FM052100 28006KT P6SM FEW250
     FM060200 22004KT P6SM FEW250
     FM060500 00000KT 6SM BR SKC=



000
FTUS41 KBOX 051514 AAA
TAFBOS
TAF AMD
KBOS 051514Z 0515/0618 27007KT P6SM SCT250
     FM051600 10004KT P6SM FEW060 FEW250
     FM052000 14008KT P6SM FEW060 SCT150
     FM052300 20006KT P6SM FEW070
     FM060500 26004KT P6SM FEW250
     FM061600 10004KT P6SM FEW250=



000
FTUS41 KBOX 051514 AAA
TAFACK
TAF AMD
KACK 051514Z 0515/0612 24011KT P6SM FEW250=



000
FTUS41 KBOX 051514 AAA
TAFACK
TAF AMD
KACK 051514Z 0515/0612 24011KT P6SM FEW250=



000
FTUS41 KBOX 051514 AAA
TAFBDL
TAF AMD
KBDL 051514Z 0515/0618 VRB03KT P6SM SCT040
     FM052100 28006KT P6SM FEW250
     FM060200 22004KT P6SM FEW250
     FM060500 00000KT 6SM BR SKC=



000
FTUS41 KBOX 051514 AAA
TAFORH
TAF AMD
KORH 051514Z 0515/0612 27010KT P6SM SCT250=



000
FTUS41 KBOX 051514 AAA
TAFBAF
TAF AMD
KBAF 051514Z 0515/0612 00000KT P6SM SCT250
     FM052000 30006KT P6SM FEW060 FEW250
     FM060200 00000KT 6SM BR SKC=



000
FTUS41 KBOX 051514 AAA
TAFORH
TAF AMD
KORH 051514Z 0515/0612 27010KT P6SM SCT250=



000
FTUS41 KBOX 051514 AAA
TAFBOS
TAF AMD
KBOS 051514Z 0515/0618 27007KT P6SM SCT250
     FM051600 10004KT P6SM FEW060 FEW250
     FM052000 14008KT P6SM FEW060 SCT150
     FM052300 20006KT P6SM FEW070
     FM060500 26004KT P6SM FEW250
     FM061600 10004KT P6SM FEW250=



000
FTUS41 KBOX 051514 AAA
TAFPVD
TAF AMD
KPVD 051514Z 0515/0612 23006KT P6SM FEW060 SCT250=



000
FTUS41 KBOX 051514 AAA
TAFACK
TAF AMD
KACK 051514Z 0515/0612 24011KT P6SM FEW250=



000
FTUS41 KBOX 051120
TAFBDL
TAF
KBDL 051120Z 0512/0618 VRB03KT P6SM SCT250
      TEMPO 0512/0513 4SM BR
     FM052100 28006KT P6SM FEW250
     FM060200 22004KT P6SM FEW250
     FM060500 00000KT 6SM BR SKC=



000
FTUS41 KBOX 051120
TAFORH
TAF
KORH 051120Z 0512/0612 27010KT P6SM SCT250
     FM061100 VRB03KT P6SM SKC=



000
FTUS41 KBOX 051120
TAFPVD
TAF
KPVD 051120Z 0512/0612 28006KT P6SM FEW250
     FM051700 21006KT P6SM FEW060 SCT250
     FM061100 00000KT P6SM FEW250=



000
FTUS41 KBOX 051120
TAFBDL
TAF
KBDL 051120Z 0512/0618 VRB03KT P6SM SCT250
      TEMPO 0512/0513 4SM BR
     FM052100 28006KT P6SM FEW250
     FM060200 22004KT P6SM FEW250
     FM060500 00000KT 6SM BR SKC=



000
FTUS41 KBOX 051120
TAFBAF
TAF
KBAF 051120Z 0512/0612 00000KT P6SM SCT250
     FM052000 30006KT P6SM FEW060 FEW250
     FM060200 00000KT 6SM BR SKC=



000
FTUS41 KBOX 051120
TAFBOS
TAF
KBOS 051120Z 0512/0618 27007KT P6SM SCT250
     FM051600 10004KT P6SM FEW060 FEW250
     FM052000 14008KT P6SM FEW060 SCT150
     FM052300 20006KT P6SM FEW070
     FM060500 26004KT P6SM FEW250
     FM061600 10004KT P6SM FEW250=



000
FTUS41 KBOX 051120
TAFPVD
TAF
KPVD 051120Z 0512/0612 28006KT P6SM FEW250
     FM051700 21006KT P6SM FEW060 SCT250
     FM061100 00000KT P6SM FEW250=



000
FTUS41 KBOX 051120
TAFACK
TAF
KACK 051120Z 0512/0612 29006KT P6SM SKC
     FM051700 24008KT P6SM FEW060 FEW250=



000
FTUS41 KBOX 051120
TAFORH
TAF
KORH 051120Z 0512/0612 27010KT P6SM SCT250
     FM061100 VRB03KT P6SM SKC=



000
FTUS41 KBOX 051120
TAFBAF
TAF
KBAF 051120Z 0512/0612 00000KT P6SM SCT250
     FM052000 30006KT P6SM FEW060 FEW250
     FM060200 00000KT 6SM BR SKC=



000
FTUS41 KBOX 051120
TAFBOS
TAF
KBOS 051120Z 0512/0618 27007KT P6SM SCT250
     FM051600 10004KT P6SM FEW060 FEW250
     FM052000 14008KT P6SM FEW060 SCT150
     FM052300 20006KT P6SM FEW070
     FM060500 26004KT P6SM FEW250
     FM061600 10004KT P6SM FEW250=



000
FTUS41 KBOX 051120
TAFACK
TAF
KACK 051120Z 0512/0612 29006KT P6SM SKC
     FM051700 24008KT P6SM FEW060 FEW250=



000
FTUS41 KBOX 050833 AAA
TAFBDL
TAF AMD
KBDL 050833Z 0509/0612 18004KT 3SM BR FEW250
     FM051100 00000KT P6SM FEW250
     FM051800 29006KT P6SM FEW060 FEW250
     FM052200 25007KT P6SM FEW250
     FM060300 VRB03KT P6SM FEW250=



000
FTUS41 KBOX 050833 AAB
TAFBAF
TAF AMD
KBAF 050833Z 0509/0606 00000KT 3SM BR SCT001
     FM051100 00000KT P6SM FEW250
     FM051500 32006KT P6SM FEW060 FEW250
     FM052100 28007KT P6SM FEW060 FEW250
     FM060000 VRB03KT P6SM SKC=



000
FTUS41 KBOX 050833 AAA
TAFBOS
TAF AMD
KBOS 050833Z 0509/0612 23006KT P6SM SKC
     FM051800 13005KT P6SM FEW060 SCT250
     FM052200 17005KT P6SM FEW250
     FM060200 24004KT P6SM FEW250=



000
FTUS41 KBOX 050833 AAA
TAFBOS
TAF AMD
KBOS 050833Z 0509/0612 23006KT P6SM SKC
     FM051800 13005KT P6SM FEW060 SCT250
     FM052200 17005KT P6SM FEW250
     FM060200 24004KT P6SM FEW250=



000
FTUS41 KBOX 050833 AAA
TAFPVD
TAF AMD
KPVD 050833Z 0509/0606 26005KT 6SM BR FEW250
     FM051100 VRB03KT P6SM FEW250
     FM051900 23007KT P6SM FEW060 FEW250=



000
FTUS41 KBOX 050833 AAA
TAFORH
TAF AMD
KORH 050833Z 0509/0606 27012KT P6SM SKC=



000
FTUS41 KBOX 050833 AAB
TAFBAF
TAF AMD
KBAF 050833Z 0509/0606 00000KT 3SM BR SCT001
     FM051100 00000KT P6SM FEW250
     FM051500 32006KT P6SM FEW060 FEW250
     FM052100 28007KT P6SM FEW060 FEW250
     FM060000 VRB03KT P6SM SKC=



000
FTUS41 KBOX 050833 AAA
TAFACK
TAF AMD
KACK 050833Z 0509/0606 29006KT P6SM SKC
     FM051300 26005KT P6SM SKC
     FM051700 23009KT P6SM SKC=



000
FTUS41 KBOX 050833 AAA
TAFORH
TAF AMD
KORH 050833Z 0509/0606 27012KT P6SM SKC=



000
FTUS41 KBOX 050833 AAA
TAFBDL
TAF AMD
KBDL 050833Z 0509/0612 18004KT 3SM BR FEW250
     FM051100 00000KT P6SM FEW250
     FM051800 29006KT P6SM FEW060 FEW250
     FM052200 25007KT P6SM FEW250
     FM060300 VRB03KT P6SM FEW250=



000
FTUS41 KBOX 050833 AAA
TAFPVD
TAF AMD
KPVD 050833Z 0509/0606 26005KT 6SM BR FEW250
     FM051100 VRB03KT P6SM FEW250
     FM051900 23007KT P6SM FEW060 FEW250=



000
FTUS41 KBOX 050628 AAA
TAFBAF
TAF AMD
KBAF 050628Z 0506/0606 00000KT 3SM BR SKC
     FM050800 00000KT 6SM BR BKN008
     FM050900 00000KT 6SM BR SCT008
     FM051200 00000KT P6SM SKC
     FM051900 28006KT P6SM FEW250
     FM060200 00000KT P6SM SKC=



000
FTUS41 KBOX 050628 AAA
TAFBAF
TAF AMD
KBAF 050628Z 0506/0606 00000KT 3SM BR SKC
     FM050800 00000KT 6SM BR BKN008
     FM050900 00000KT 6SM BR SCT008
     FM051200 00000KT P6SM SKC
     FM051900 28006KT P6SM FEW250
     FM060200 00000KT P6SM SKC=



000
FTUS41 KBOX 050530
TAFORH
TAF
KORH 050530Z 0506/0606 27007KT P6SM SKC=



000
FTUS41 KBOX 050530
TAFPVD
TAF
KPVD 050530Z 0506/0606 26003KT 3SM BR SKC
     FM051100 30005KT P6SM SCT250
     FM051700 23007KT P6SM FEW250=



000
FTUS41 KBOX 050530
TAFBDL
TAF
KBDL 050530Z 0506/0612 25003KT P6SM SKC
     FM051800 28006KT P6SM FEW250
     FM060200 22004KT P6SM FEW250
     FM060500 00000KT P6SM SKC=



000
FTUS41 KBOX 050530
TAFBOS
TAF
KBOS 050530Z 0506/0612 00000KT P6SM FEW003
     FM051700 20004KT P6SM SCT250
     FM060500 26004KT P6SM FEW250=



000
FTUS41 KBOX 050530
TAFACK
TAF
KACK 050530Z 0506/0606 35004KT P6SM SKC
     FM051200 27006KT P6SM SKC
     FM051600 25010KT P6SM SKC=



000
FTUS41 KBOX 050530
TAFBAF
TAF
KBAF 050530Z 0506/0606 00000KT 1/4SM FG BKN001
     FM050800 00000KT 6SM BR BKN008
     FM050900 00000KT 6SM BR SCT008
     FM051200 00000KT P6SM SKC
     FM051900 28006KT P6SM FEW250
     FM060200 00000KT P6SM SKC=



000
FTUS41 KBOX 050530
TAFBAF
TAF
KBAF 050530Z 0506/0606 00000KT 1/4SM FG BKN001
     FM050800 00000KT 6SM BR BKN008
     FM050900 00000KT 6SM BR SCT008
     FM051200 00000KT P6SM SKC
     FM051900 28006KT P6SM FEW250
     FM060200 00000KT P6SM SKC=



000
FTUS41 KBOX 050530
TAFORH
TAF
KORH 050530Z 0506/0606 27007KT P6SM SKC=



000
FTUS41 KBOX 050530
TAFACK
TAF
KACK 050530Z 0506/0606 35004KT P6SM SKC
     FM051200 27006KT P6SM SKC
     FM051600 25010KT P6SM SKC=



000
FTUS41 KBOX 050530
TAFBDL
TAF
KBDL 050530Z 0506/0612 25003KT P6SM SKC
     FM051800 28006KT P6SM FEW250
     FM060200 22004KT P6SM FEW250
     FM060500 00000KT P6SM SKC=



000
FTUS41 KBOX 050530
TAFPVD
TAF
KPVD 050530Z 0506/0606 26003KT 3SM BR SKC
     FM051100 30005KT P6SM SCT250
     FM051700 23007KT P6SM FEW250=



000
FTUS41 KBOX 050530
TAFBOS
TAF
KBOS 050530Z 0506/0612 00000KT P6SM FEW003
     FM051700 20004KT P6SM SCT250
     FM060500 26004KT P6SM FEW250=



000
FTUS41 KBOX 050336 AAA
TAFORH
TAF AMD
KORH 050336Z 0504/0524 29007KT P6SM SKC
     FM051600 29007KT P6SM SCT050=



000
FTUS41 KBOX 050336 AAA
TAFACK
TAF AMD
KACK 050336Z 0504/0524 33006KT P6SM SCT250
     FM051200 28005KT P6SM FEW250
     FM051800 23009KT P6SM FEW250=



000
FTUS41 KBOX 050336 AAA
TAFBOS
TAF AMD
KBOS 050336Z 0504/0606 00000KT P6SM FEW250
     FM050600 27004KT P6SM SCT250
     FM051500 VRB03KT P6SM FEW050
     FM051700 12004KT P6SM SCT050
     FM052300 17005KT P6SM FEW250=



000
FTUS41 KBOX 050336 AAA
TAFACK
TAF AMD
KACK 050336Z 0504/0524 33006KT P6SM SCT250
     FM051200 28005KT P6SM FEW250
     FM051800 23009KT P6SM FEW250=



000
FTUS41 KBOX 050336 AAA
TAFBAF
TAF AMD
KBAF 050336Z 0504/0524 00000KT 5SM BR SKC
     FM051600 29006KT P6SM SCT050
     FM052300 28004KT P6SM FEW200=



000
FTUS41 KBOX 050336 AAA
TAFPVD
TAF AMD
KPVD 050336Z 0504/0524 32004KT 3SM HZ FEW003 SCT250
     FM051700 25006KT P6SM FEW050=



000
FTUS41 KBOX 050336 AAA
TAFORH
TAF AMD
KORH 050336Z 0504/0524 29007KT P6SM SKC
     FM051600 29007KT P6SM SCT050=



000
FTUS41 KBOX 050336 AAA
TAFPVD
TAF AMD
KPVD 050336Z 0504/0524 32004KT 3SM HZ FEW003 SCT250
     FM051700 25006KT P6SM FEW050=



000
FTUS41 KBOX 050336 AAA
TAFBAF
TAF AMD
KBAF 050336Z 0504/0524 00000KT 5SM BR SKC
     FM051600 29006KT P6SM SCT050
     FM052300 28004KT P6SM FEW200=



000
FTUS41 KBOX 050336 AAA
TAFBDL
TAF AMD
KBDL 050336Z 0504/0606 00000KT P6SM SKC
     FM051700 29006KT P6SM SCT050
     FM060500 00000KT P6SM FEW250=



000
FTUS41 KBOX 050336 AAA
TAFBOS
TAF AMD
KBOS 050336Z 0504/0606 00000KT P6SM FEW250
     FM050600 27004KT P6SM SCT250
     FM051500 VRB03KT P6SM FEW050
     FM051700 12004KT P6SM SCT050
     FM052300 17005KT P6SM FEW250=



000
FTUS41 KBOX 050336 AAA
TAFBDL
TAF AMD
KBDL 050336Z 0504/0606 00000KT P6SM SKC
     FM051700 29006KT P6SM SCT050
     FM060500 00000KT P6SM FEW250=



000
FTUS41 KBOX 042332
TAFPVD
TAF
KPVD 042332Z 0500/0524 00000KT P6SM SCT120
     FM051700 25006KT P6SM FEW050=



000
FTUS41 KBOX 042332
TAFBAF
TAF
KBAF 042332Z 0500/0524 VRB03KT P6SM SCT120
     FM051600 29006KT P6SM SCT050
     FM052300 28004KT P6SM FEW200=



000
FTUS41 KBOX 042332
TAFBDL
TAF
KBDL 042332Z 0500/0606 35003KT P6SM SCT090
     FM051700 29006KT P6SM SCT050
     FM060500 00000KT P6SM FEW250=



000
FTUS41 KBOX 042332
TAFBOS
TAF
KBOS 042332Z 0500/0606 05003KT P6SM FEW035 BKN150
     FM050200 34003KT P6SM SCT120
     FM050600 27004KT P6SM SCT250
     FM051500 VRB03KT P6SM FEW050
     FM051700 12004KT P6SM SCT050
     FM052300 17005KT P6SM FEW250=



000
FTUS41 KBOX 042332
TAFORH
TAF
KORH 042332Z 0500/0524 VRB03KT P6SM SCT120
     FM051600 29007KT P6SM SCT050=



000
FTUS41 KBOX 042332
TAFACK
TAF
KACK 042332Z 0500/0524 05010KT P6SM BKN120
     FM050200 03007KT P6SM BKN150
     FM050600 34004KT P6SM SCT250
     FM051200 28005KT P6SM FEW250
     FM051800 23009KT P6SM FEW250=



000
FTUS41 KBOX 042332
TAFPVD
TAF
KPVD 042332Z 0500/0524 00000KT P6SM SCT120
     FM051700 25006KT P6SM FEW050=



000
FTUS41 KBOX 042332
TAFBAF
TAF
KBAF 042332Z 0500/0524 VRB03KT P6SM SCT120
     FM051600 29006KT P6SM SCT050
     FM052300 28004KT P6SM FEW200=



000
FTUS41 KBOX 042332
TAFORH
TAF
KORH 042332Z 0500/0524 VRB03KT P6SM SCT120
     FM051600 29007KT P6SM SCT050=



000
FTUS41 KBOX 042332
TAFACK
TAF
KACK 042332Z 0500/0524 05010KT P6SM BKN120
     FM050200 03007KT P6SM BKN150
     FM050600 34004KT P6SM SCT250
     FM051200 28005KT P6SM FEW250
     FM051800 23009KT P6SM FEW250=



000
FTUS41 KBOX 042332
TAFBDL
TAF
KBDL 042332Z 0500/0606 35003KT P6SM SCT090
     FM051700 29006KT P6SM SCT050
     FM060500 00000KT P6SM FEW250=



000
FTUS41 KBOX 042332
TAFBOS
TAF
KBOS 042332Z 0500/0606 05003KT P6SM FEW035 BKN150
     FM050200 34003KT P6SM SCT120
     FM050600 27004KT P6SM SCT250
     FM051500 VRB03KT P6SM FEW050
     FM051700 12004KT P6SM SCT050
     FM052300 17005KT P6SM FEW250=



000
FTUS41 KBOX 042332
TAFORH
TAF
KORH 042332Z 0500/0524 VRB03KT P6SM SCT120
     FM051600 29007KT P6SM SCT050=



000
FTUS41 KBOX 042332
TAFBOS
TAF
KBOS 042332Z 0500/0606 05003KT P6SM FEW035 BKN150
     FM050200 34003KT P6SM SCT120
     FM050600 27004KT P6SM SCT250
     FM051500 VRB03KT P6SM FEW050
     FM051700 12004KT P6SM SCT050
     FM052300 17005KT P6SM FEW250=



000
FTUS41 KBOX 042332
TAFBAF
TAF
KBAF 042332Z 0500/0524 VRB03KT P6SM SCT120
     FM051600 29006KT P6SM SCT050
     FM052300 28004KT P6SM FEW200=



000
FTUS41 KBOX 042332
TAFPVD
TAF
KPVD 042332Z 0500/0524 00000KT P6SM SCT120
     FM051700 25006KT P6SM FEW050=



000
FTUS41 KBOX 042332
TAFBDL
TAF
KBDL 042332Z 0500/0606 35003KT P6SM SCT090
     FM051700 29006KT P6SM SCT050
     FM060500 00000KT P6SM FEW250=



000
FTUS41 KBOX 042332
TAFACK
TAF
KACK 042332Z 0500/0524 05010KT P6SM BKN120
     FM050200 03007KT P6SM BKN150
     FM050600 34004KT P6SM SCT250
     FM051200 28005KT P6SM FEW250
     FM051800 23009KT P6SM FEW250=



000
FTUS41 KBOX 042332
TAFBAF
TAF
KBAF 042332Z 0500/0524 VRB03KT P6SM SCT120
     FM051600 29006KT P6SM SCT050
     FM052300 28004KT P6SM FEW200=



000
FTUS41 KBOX 042332
TAFACK
TAF
KACK 042332Z 0500/0524 05010KT P6SM BKN120
     FM050200 03007KT P6SM BKN150
     FM050600 34004KT P6SM SCT250
     FM051200 28005KT P6SM FEW250
     FM051800 23009KT P6SM FEW250=



000
FTUS41 KBOX 042332
TAFBDL
TAF
KBDL 042332Z 0500/0606 35003KT P6SM SCT090
     FM051700 29006KT P6SM SCT050
     FM060500 00000KT P6SM FEW250=



000
FTUS41 KBOX 042332
TAFPVD
TAF
KPVD 042332Z 0500/0524 00000KT P6SM SCT120
     FM051700 25006KT P6SM FEW050=



000
FTUS41 KBOX 042332
TAFORH
TAF
KORH 042332Z 0500/0524 VRB03KT P6SM SCT120
     FM051600 29007KT P6SM SCT050=



000
FTUS41 KBOX 042332
TAFBOS
TAF
KBOS 042332Z 0500/0606 05003KT P6SM FEW035 BKN150
     FM050200 34003KT P6SM SCT120
     FM050600 27004KT P6SM SCT250
     FM051500 VRB03KT P6SM FEW050
     FM051700 12004KT P6SM SCT050
     FM052300 17005KT P6SM FEW250=



000
FTUS41 KBOX 042027 AAA
TAFPVD
TAF AMD
KPVD 042027Z 0420/0518 15004KT P6SM -SHRA OVC100
     FM042200 00000KT P6SM OVC100
     FM051200 29008KT P6SM SCT250=



000
FTUS41 KBOX 042027 AAA
TAFPVD
TAF AMD
KPVD 042027Z 0420/0518 15004KT P6SM -SHRA OVC100
     FM042200 00000KT P6SM OVC100
     FM051200 29008KT P6SM SCT250=



000
FTUS41 KBOX 042026 AAA
TAFBOS
TAF AMD
KBOS 042026Z 0420/0524 08005KT P6SM OVC100
      TEMPO 0420/0422 6SM -SHRA OVC050
     FM050200 VRB03KT P6SM SCT250
     FM050800 29006KT P6SM SKC=



000
FTUS41 KBOX 042026 AAA
TAFBOS
TAF AMD
KBOS 042026Z 0420/0524 08005KT P6SM OVC100
      TEMPO 0420/0422 6SM -SHRA OVC050
     FM050200 VRB03KT P6SM SCT250
     FM050800 29006KT P6SM SKC=



000
FTUS41 KBOX 042026 AAA
TAFBOS
TAF AMD
KBOS 042026Z 0420/0524 08005KT P6SM OVC100
      TEMPO 0420/0422 6SM -SHRA OVC050
     FM050200 VRB03KT P6SM SCT250
     FM050800 29006KT P6SM SKC=



000
FTUS41 KBOX 042026 AAA
TAFBDL
TAF AMD
KBDL 042026Z 0420/0524 00000KT P6SM -SHRA OVC070
     FM042200 00000KT P6SM OVC090
     FM050500 00000KT P6SM SCT250
     FM051400 32006KT P6SM FEW050=



000
FTUS41 KBOX 042026 AAA
TAFBDL
TAF AMD
KBDL 042026Z 0420/0524 00000KT P6SM -SHRA OVC070
     FM042200 00000KT P6SM OVC090
     FM050500 00000KT P6SM SCT250
     FM051400 32006KT P6SM FEW050=



000
FTUS41 KBOX 041720
TAFORH
TAF
KORH 041720Z 0418/0518 VRB03KT P6SM -SHRA OVC100
     FM050000 00000KT P6SM OVC080
     FM050600 VRB03KT P6SM SCT250
     FM051200 30010KT P6SM SKC=



000
FTUS41 KBOX 041720
TAFBDL
TAF
KBDL 041720Z 0418/0524 00000KT P6SM -SHRA OVC090
     FM042300 00000KT P6SM OVC090
     FM050500 00000KT P6SM SCT250
     FM051400 32006KT P6SM FEW050=



000
FTUS41 KBOX 041720
TAFORH
TAF
KORH 041720Z 0418/0518 VRB03KT P6SM -SHRA OVC100
     FM050000 00000KT P6SM OVC080
     FM050600 VRB03KT P6SM SCT250
     FM051200 30010KT P6SM SKC=



000
FTUS41 KBOX 041720
TAFACK
TAF
KACK 041720Z 0418/0518 09010KT P6SM OVC090
     FM050100 05008KT P6SM OVC080
     FM050700 35005KT P6SM SCT090
     FM051200 29005KT P6SM FEW250=



000
FTUS41 KBOX 041720
TAFORH
TAF
KORH 041720Z 0418/0518 VRB03KT P6SM -SHRA OVC100
     FM050000 00000KT P6SM OVC080
     FM050600 VRB03KT P6SM SCT250
     FM051200 30010KT P6SM SKC=



000
FTUS41 KBOX 041720
TAFBOS
TAF
KBOS 041720Z 0418/0524 08005KT P6SM OVC100
      TEMPO 0420/0423 6SM -SHRA OVC070
     FM050200 VRB03KT P6SM SCT250
     FM050800 29006KT P6SM SKC=



000
FTUS41 KBOX 041720
TAFBAF
TAF
KBAF 041720Z 0418/0518 00000KT P6SM -SHRA OVC090
     FM042300 00000KT P6SM OVC090
     FM050900 00000KT 5SM BR SCT250
     FM051100 32005KT P6SM FEW050=



000
FTUS41 KBOX 041720
TAFBOS
TAF
KBOS 041720Z 0418/0524 08005KT P6SM OVC100
      TEMPO 0420/0423 6SM -SHRA OVC070
     FM050200 VRB03KT P6SM SCT250
     FM050800 29006KT P6SM SKC=



000
FTUS41 KBOX 041720
TAFACK
TAF
KACK 041720Z 0418/0518 09010KT P6SM OVC090
     FM050100 05008KT P6SM OVC080
     FM050700 35005KT P6SM SCT090
     FM051200 29005KT P6SM FEW250=



000
FTUS41 KBOX 041720
TAFBAF
TAF
KBAF 041720Z 0418/0518 00000KT P6SM -SHRA OVC090
     FM042300 00000KT P6SM OVC090
     FM050900 00000KT 5SM BR SCT250
     FM051100 32005KT P6SM FEW050=



000
FTUS41 KBOX 041720
TAFPVD
TAF
KPVD 041720Z 0418/0518 13005KT P6SM OVC100
     FM050200 00000KT P6SM OVC100
     FM051200 29008KT P6SM SCT250=



000
FTUS41 KBOX 041720
TAFPVD
TAF
KPVD 041720Z 0418/0518 13005KT P6SM OVC100
     FM050200 00000KT P6SM OVC100
     FM051200 29008KT P6SM SCT250=



000
FTUS41 KBOX 041720
TAFBDL
TAF
KBDL 041720Z 0418/0524 00000KT P6SM -SHRA OVC090
     FM042300 00000KT P6SM OVC090
     FM050500 00000KT P6SM SCT250
     FM051400 32006KT P6SM FEW050=



000
FTUS41 KBOX 041541 AAA
TAFPVD
TAF AMD
KPVD 041541Z 0416/0512 12004KT P6SM BKN120=



000
FTUS41 KBOX 041541 AAA
TAFPVD
TAF AMD
KPVD 041541Z 0416/0512 12004KT P6SM BKN120=



000
FTUS41 KBOX 041540 AAA
TAFBDL
TAF AMD
KBDL 041540Z 0416/0518 01005KT P6SM OVC100
      TEMPO 0416/0419 5SM -RA OVC070
     FM050700 00000KT P6SM SCT250
     FM051700 28006KT P6SM FEW250=



000
FTUS41 KBOX 041540 AAA
TAFBDL
TAF AMD
KBDL 041540Z 0416/0518 01005KT P6SM OVC100
      TEMPO 0416/0419 5SM -RA OVC070
     FM050700 00000KT P6SM SCT250
     FM051700 28006KT P6SM FEW250=



000
FTUS41 KBOX 041538 AAA
TAFBOS
TAF AMD
KBOS 041538Z 0416/0518 12006KT P6SM BKN120
     FM051000 27004KT P6SM SCT250=



000
FTUS41 KBOX 041538 AAA
TAFBOS
TAF AMD
KBOS 041538Z 0416/0518 12006KT P6SM BKN120
     FM051000 27004KT P6SM SCT250=



000
FTUS41 KBOX 041121
TAFACK
TAF
KACK 041121Z 0412/0512 10005KT P6SM BKN130
     FM042000 07010KT P6SM OVC080
     FM042200 06010KT P6SM VCSH OVC070
     FM050100 04010KT P6SM VCSH OVC070
     FM050600 36006KT P6SM BKN250=



000
FTUS41 KBOX 041121
TAFPVD
TAF
KPVD 041121Z 0412/0512 VRB03KT P6SM BKN120=



000
FTUS41 KBOX 041121
TAFBAF
TAF
KBAF 041121Z 0412/0512 VRB03KT P6SM BKN120
     FM041400 00000KT P6SM VCSH BKN110
     FM042000 34004KT P6SM OVC080
     FM050700 00000KT 6SM BR SCT070=



000
FTUS41 KBOX 041121
TAFBDL
TAF
KBDL 041121Z 0412/0518 VRB03KT 6SM -SHRA BKN150 OVC250
     FM041500 01005KT P6SM VCSH BKN150
     FM050700 00000KT P6SM SCT250
     FM051700 28006KT P6SM FEW250=



000
FTUS41 KBOX 041121
TAFBOS
TAF
KBOS 041121Z 0412/0518 20004KT P6SM SCT150 BKN250
     FM041500 11006KT P6SM BKN120
     FM051000 27004KT P6SM SCT250=



000
FTUS41 KBOX 041121
TAFORH
TAF
KORH 041121Z 0412/0512 27005KT P6SM BKN130
     FM041800 20004KT P6SM VCSH OVC100
     FM042000 29004KT P6SM OVC090
     FM042300 00000KT P6SM OVC080
     FM050700 28004KT P6SM SCT250=



000
FTUS41 KBOX 040838 AAA
TAFBDL
TAF AMD
KBDL 040838Z 0409/0512 00000KT P6SM FEW140 OVC200
     FM042000 00000KT P6SM VCSH OVC070
     FM042300 00000KT P6SM BKN070
     FM050700 00000KT P6SM SCT070=



000
FTUS41 KBOX 040838 AAA
TAFBAF
TAF AMD
KBAF 040838Z 0409/0506 00000KT P6SM OVC200
     FM041900 00000KT P6SM VCSH OVC070
     FM042300 00000KT P6SM BKN070=



000
FTUS41 KBOX 040838 AAA
TAFBOS
TAF AMD
KBOS 040838Z 0409/0512 20006KT P6SM OVC200
     FM041600 15006KT P6SM BKN110
     FM050800 VRB03KT P6SM SCT110=



000
FTUS41 KBOX 040838 AAA
TAFACK
TAF AMD
KACK 040838Z 0409/0506 14004KT 6SM BR OVC200
     FM041500 11009KT P6SM BKN110
     FM041700 10010KT P6SM VCSH OVC100
     FM042000 08010KT 5SM -SHRA OVC090
     FM042200 06011KT P6SM VCSH OVC080
     FM050000 05011KT 6SM BR OVC070=



000
FTUS41 KBOX 040838 AAA
TAFBDL
TAF AMD
KBDL 040838Z 0409/0512 00000KT P6SM FEW140 OVC200
     FM042000 00000KT P6SM VCSH OVC070
     FM042300 00000KT P6SM BKN070
     FM050700 00000KT P6SM SCT070=



000
FTUS41 KBOX 040838 AAA
TAFPVD
TAF AMD
KPVD 040838Z 0409/0506 VRB03KT P6SM OVC200
     FM042000 11005KT P6SM VCSH OVC090
     FM050000 08004KT P6SM OVC070=



000
FTUS41 KBOX 040838 AAA
TAFBAF
TAF AMD
KBAF 040838Z 0409/0506 00000KT P6SM OVC200
     FM041900 00000KT P6SM VCSH OVC070
     FM042300 00000KT P6SM BKN070=



000
FTUS41 KBOX 040838 AAA
TAFORH
TAF AMD
KORH 040838Z 0409/0506 26007KT P6SM OVC200
     FM041500 VRB03KT P6SM BKN110=



000
FTUS41 KBOX 040838 AAA
TAFPVD
TAF AMD
KPVD 040838Z 0409/0506 VRB03KT P6SM OVC200
     FM042000 11005KT P6SM VCSH OVC090
     FM050000 08004KT P6SM OVC070=



000
FTUS41 KBOX 040838 AAA
TAFBOS
TAF AMD
KBOS 040838Z 0409/0512 20006KT P6SM OVC200
     FM041600 15006KT P6SM BKN110
     FM050800 VRB03KT P6SM SCT110=



000
FTUS41 KBOX 040838 AAA
TAFACK
TAF AMD
KACK 040838Z 0409/0506 14004KT 6SM BR OVC200
     FM041500 11009KT P6SM BKN110
     FM041700 10010KT P6SM VCSH OVC100
     FM042000 08010KT 5SM -SHRA OVC090
     FM042200 06011KT P6SM VCSH OVC080
     FM050000 05011KT 6SM BR OVC070=



000
FTUS41 KBOX 040838 AAA
TAFORH
TAF AMD
KORH 040838Z 0409/0506 26007KT P6SM OVC200
     FM041500 VRB03KT P6SM BKN110=



000
FTUS41 KBOX 040535
TAFBOS
TAF
KBOS 040535Z 0406/0512 21007KT P6SM FEW070 BKN250
     FM041500 15005KT P6SM BKN120
     FM050800 VRB03KT P6SM SCT110=



000
FTUS41 KBOX 040535
TAFORH
TAF
KORH 040535Z 0406/0506 25006KT P6SM BKN250
     FM041500 VRB03KT P6SM BKN110=



000
FTUS41 KBOX 040535
TAFBDL
TAF
KBDL 040535Z 0406/0512 16003KT P6SM OVC220
     FM041200 00000KT P6SM BKN110
     FM041800 00000KT P6SM VCSH OVC080
     FM042200 00000KT P6SM BKN070
     FM050700 00000KT P6SM SCT070=



000
FTUS41 KBOX 040535
TAFPVD
TAF
KPVD 040535Z 0406/0506 20003KT P6SM BKN250
     FM041500 14004KT P6SM BKN100
     FM041900 12005KT P6SM VCSH OVC100
     FM050200 VRB03KT P6SM BKN080=



000
FTUS41 KBOX 040535
TAFACK
TAF
KACK 040535Z 0406/0506 17004KT 2SM BR BKN250
     FM041200 11008KT P6SM BKN120
     FM041600 11009KT P6SM VCSH BKN100
     FM042100 07011KT P6SM VCSH OVC090
     FM050200 03010KT P6SM BKN070=



000
FTUS41 KBOX 040535
TAFBDL
TAF
KBDL 040535Z 0406/0512 16003KT P6SM OVC220
     FM041200 00000KT P6SM BKN110
     FM041800 00000KT P6SM VCSH OVC080
     FM042200 00000KT P6SM BKN070
     FM050700 00000KT P6SM SCT070=



000
FTUS41 KBOX 040535
TAFBOS
TAF
KBOS 040535Z 0406/0512 21007KT P6SM FEW070 BKN250
     FM041500 15005KT P6SM BKN120
     FM050800 VRB03KT P6SM SCT110=



000
FTUS41 KBOX 040535
TAFORH
TAF
KORH 040535Z 0406/0506 25006KT P6SM BKN250
     FM041500 VRB03KT P6SM BKN110=



000
FTUS41 KBOX 040535
TAFPVD
TAF
KPVD 040535Z 0406/0506 20003KT P6SM BKN250
     FM041500 14004KT P6SM BKN100
     FM041900 12005KT P6SM VCSH OVC100
     FM050200 VRB03KT P6SM BKN080=



000
FTUS41 KBOX 040535
TAFACK
TAF
KACK 040535Z 0406/0506 17004KT 2SM BR BKN250
     FM041200 11008KT P6SM BKN120
     FM041600 11009KT P6SM VCSH BKN100
     FM042100 07011KT P6SM VCSH OVC090
     FM050200 03010KT P6SM BKN070=



000
FTUS41 KBOX 040535
TAFBOS
TAF
KBOS 040535Z 0406/0512 21007KT P6SM FEW070 BKN250
     FM041500 15005KT P6SM BKN120
     FM050800 VRB03KT P6SM SCT110=



000
FTUS41 KBOX 040535
TAFBAF
TAF
KBAF 040535Z 0406/0506 VRB03KT P6SM BKN250
     FM041400 00000KT P6SM BKN110
     FM041800 00000KT P6SM VCSH OVC070
     FM042200 00000KT P6SM BKN070=



000
FTUS41 KBOX 040535
TAFORH
TAF
KORH 040535Z 0406/0506 25006KT P6SM BKN250
     FM041500 VRB03KT P6SM BKN110=



000
FTUS41 KBOX 040535
TAFACK
TAF
KACK 040535Z 0406/0506 17004KT 2SM BR BKN250
     FM041200 11008KT P6SM BKN120
     FM041600 11009KT P6SM VCSH BKN100
     FM042100 07011KT P6SM VCSH OVC090
     FM050200 03010KT P6SM BKN070=



000
FTUS41 KBOX 040535
TAFBDL
TAF
KBDL 040535Z 0406/0512 16003KT P6SM OVC220
     FM041200 00000KT P6SM BKN110
     FM041800 00000KT P6SM VCSH OVC080
     FM042200 00000KT P6SM BKN070
     FM050700 00000KT P6SM SCT070=



000
FTUS41 KBOX 040535
TAFPVD
TAF
KPVD 040535Z 0406/0506 20003KT P6SM BKN250
     FM041500 14004KT P6SM BKN100
     FM041900 12005KT P6SM VCSH OVC100
     FM050200 VRB03KT P6SM BKN080=



000
FTUS41 KBOX 040535
TAFBAF
TAF
KBAF 040535Z 0406/0506 VRB03KT P6SM BKN250
     FM041400 00000KT P6SM BKN110
     FM041800 00000KT P6SM VCSH OVC070
     FM042200 00000KT P6SM BKN070=



000
FTUS41 KBOX 040535
TAFPVD
TAF
KPVD 040535Z 0406/0506 20003KT P6SM BKN250
     FM041500 14004KT P6SM BKN100
     FM041900 12005KT P6SM VCSH OVC100
     FM050200 VRB03KT P6SM BKN080=



000
FTUS41 KBOX 040535
TAFBDL
TAF
KBDL 040535Z 0406/0512 16003KT P6SM OVC220
     FM041200 00000KT P6SM BKN110
     FM041800 00000KT P6SM VCSH OVC080
     FM042200 00000KT P6SM BKN070
     FM050700 00000KT P6SM SCT070=



000
FTUS41 KBOX 040535
TAFBAF
TAF
KBAF 040535Z 0406/0506 VRB03KT P6SM BKN250
     FM041400 00000KT P6SM BKN110
     FM041800 00000KT P6SM VCSH OVC070
     FM042200 00000KT P6SM BKN070=



000
FTUS41 KBOX 040323 AAA
TAFBAF
TAF AMD
KBAF 040323Z 0403/0424 VRB03KT P6SM SKC
     FM041500 VRB03KT P6SM FEW050 BKN090=



000
FTUS41 KBOX 040323 AAA
TAFPVD
TAF AMD
KPVD 040323Z 0403/0424 19004KT P6SM BKN300
     FM041600 11005KT P6SM OVC080
     FM042200 07009KT P6SM -RA SCT035 OVC050=



000
FTUS41 KBOX 040323 AAA
TAFORH
TAF AMD
KORH 040323Z 0403/0424 22006KT P6SM SKC
     FM041500 VRB03KT P6SM SCT070 OVC120
     FM041800 VRB03KT P6SM FEW050 OVC070=



000
FTUS41 KBOX 040323 AAA
TAFBDL
TAF AMD
KBDL 040323Z 0403/0506 20006KT P6SM BKN250
     FM040500 VRB03KT P6SM BKN250
     FM041400 07004KT P6SM BKN090
     FM042000 06005KT P6SM -RA SCT035 OVC070
     FM050000 VRB03KT P6SM SCT050 BKN100
     FM050500 00000KT P6SM BKN250=



000
FTUS41 KBOX 040323 AAA
TAFACK
TAF AMD
KACK 040323Z 0403/0424 16003KT P6SM SKC
      TEMPO 0403/0407 3SM BR
     FM041300 12007KT P6SM SCT090 OVC200
     FM041600 10012KT P6SM SCT035 OVC080
     FM041900 09015KT 5SM -RA BR SCT015 OVC025
     FM042100 08015KT 3SM -RA BR OVC010=



000
FTUS41 KBOX 040323 AAA
TAFBAF
TAF AMD
KBAF 040323Z 0403/0424 VRB03KT P6SM SKC
     FM041500 VRB03KT P6SM FEW050 BKN090=



000
FTUS41 KBOX 040323 AAA
TAFBDL
TAF AMD
KBDL 040323Z 0403/0506 20006KT P6SM BKN250
     FM040500 VRB03KT P6SM BKN250
     FM041400 07004KT P6SM BKN090
     FM042000 06005KT P6SM -RA SCT035 OVC070
     FM050000 VRB03KT P6SM SCT050 BKN100
     FM050500 00000KT P6SM BKN250=



000
FTUS41 KBOX 040323 AAA
TAFORH
TAF AMD
KORH 040323Z 0403/0424 22006KT P6SM SKC
     FM041500 VRB03KT P6SM SCT070 OVC120
     FM041800 VRB03KT P6SM FEW050 OVC070=



000
FTUS41 KBOX 040323 AAA
TAFBOS
TAF AMD
KBOS 040323Z 0403/0506 19007KT P6SM FEW070 SCT200
     FM041000 VRB03KT P6SM SCT250
     FM041700 14007KT P6SM BKN120
     FM042200 10007KT P6SM SCT050 OVC080
     FM050300 03004KT P6SM BKN120=



000
FTUS41 KBOX 040323 AAA
TAFACK
TAF AMD
KACK 040323Z 0403/0424 16003KT P6SM SKC
      TEMPO 0403/0407 3SM BR
     FM041300 12007KT P6SM SCT090 OVC200
     FM041600 10012KT P6SM SCT035 OVC080
     FM041900 09015KT 5SM -RA BR SCT015 OVC025
     FM042100 08015KT 3SM -RA BR OVC010=



000
FTUS41 KBOX 040323 AAA
TAFPVD
TAF AMD
KPVD 040323Z 0403/0424 19004KT P6SM BKN300
     FM041600 11005KT P6SM OVC080
     FM042200 07009KT P6SM -RA SCT035 OVC050=



000
FTUS41 KBOX 040323 AAA
TAFBOS
TAF AMD
KBOS 040323Z 0403/0506 19007KT P6SM FEW070 SCT200
     FM041000 VRB03KT P6SM SCT250
     FM041700 14007KT P6SM BKN120
     FM042200 10007KT P6SM SCT050 OVC080
     FM050300 03004KT P6SM BKN120=



000
FTUS41 KBOX 040323 AAA
TAFBAF
TAF AMD
KBAF 040323Z 0403/0424 VRB03KT P6SM SKC
     FM041500 VRB03KT P6SM FEW050 BKN090=



000
FTUS41 KBOX 040323 AAA
TAFPVD
TAF AMD
KPVD 040323Z 0403/0424 19004KT P6SM BKN300
     FM041600 11005KT P6SM OVC080
     FM042200 07009KT P6SM -RA SCT035 OVC050=



000
FTUS41 KBOX 040323 AAA
TAFBOS
TAF AMD
KBOS 040323Z 0403/0506 19007KT P6SM FEW070 SCT200
     FM041000 VRB03KT P6SM SCT250
     FM041700 14007KT P6SM BKN120
     FM042200 10007KT P6SM SCT050 OVC080
     FM050300 03004KT P6SM BKN120=



000
FTUS41 KBOX 040323 AAA
TAFBDL
TAF AMD
KBDL 040323Z 0403/0506 20006KT P6SM BKN250
     FM040500 VRB03KT P6SM BKN250
     FM041400 07004KT P6SM BKN090
     FM042000 06005KT P6SM -RA SCT035 OVC070
     FM050000 VRB03KT P6SM SCT050 BKN100
     FM050500 00000KT P6SM BKN250=



000
FTUS41 KBOX 040323 AAA
TAFACK
TAF AMD
KACK 040323Z 0403/0424 16003KT P6SM SKC
      TEMPO 0403/0407 3SM BR
     FM041300 12007KT P6SM SCT090 OVC200
     FM041600 10012KT P6SM SCT035 OVC080
     FM041900 09015KT 5SM -RA BR SCT015 OVC025
     FM042100 08015KT 3SM -RA BR OVC010=



000
FTUS41 KBOX 040323 AAA
TAFORH
TAF AMD
KORH 040323Z 0403/0424 22006KT P6SM SKC
     FM041500 VRB03KT P6SM SCT070 OVC120
     FM041800 VRB03KT P6SM FEW050 OVC070=



000
FTUS41 KBOX 040323 AAA
TAFBDL
TAF AMD
KBDL 040323Z 0403/0506 20006KT P6SM BKN250
     FM040500 VRB03KT P6SM BKN250
     FM041400 07004KT P6SM BKN090
     FM042000 06005KT P6SM -RA SCT035 OVC070
     FM050000 VRB03KT P6SM SCT050 BKN100
     FM050500 00000KT P6SM BKN250=



000
FTUS41 KBOX 040323 AAA
TAFORH
TAF AMD
KORH 040323Z 0403/0424 22006KT P6SM SKC
     FM041500 VRB03KT P6SM SCT070 OVC120
     FM041800 VRB03KT P6SM FEW050 OVC070=



000
FTUS41 KBOX 040323 AAA
TAFBOS
TAF AMD
KBOS 040323Z 0403/0506 19007KT P6SM FEW070 SCT200
     FM041000 VRB03KT P6SM SCT250
     FM041700 14007KT P6SM BKN120
     FM042200 10007KT P6SM SCT050 OVC080
     FM050300 03004KT P6SM BKN120=



000
FTUS41 KBOX 040323 AAA
TAFACK
TAF AMD
KACK 040323Z 0403/0424 16003KT P6SM SKC
      TEMPO 0403/0407 3SM BR
     FM041300 12007KT P6SM SCT090 OVC200
     FM041600 10012KT P6SM SCT035 OVC080
     FM041900 09015KT 5SM -RA BR SCT015 OVC025
     FM042100 08015KT 3SM -RA BR OVC010=



000
FTUS41 KBOX 040323 AAA
TAFPVD
TAF AMD
KPVD 040323Z 0403/0424 19004KT P6SM BKN300
     FM041600 11005KT P6SM OVC080
     FM042200 07009KT P6SM -RA SCT035 OVC050=



000
FTUS41 KBOX 040323 AAA
TAFBAF
TAF AMD
KBAF 040323Z 0403/0424 VRB03KT P6SM SKC
     FM041500 VRB03KT P6SM FEW050 BKN090=



000
FTUS41 KBOX 032330
TAFBDL
TAF
KBDL 032330Z 0400/0506 25005KT P6SM SCT250
     FM040500 VRB03KT P6SM BKN250
     FM041400 07004KT P6SM BKN090
     FM042000 06005KT P6SM -RA SCT035 OVC070
     FM050000 VRB03KT P6SM SCT050 BKN100
     FM050500 00000KT P6SM BKN250=



000
FTUS41 KBOX 032330
TAFBOS
TAF
KBOS 032330Z 0400/0506 13005KT P6SM SKC
     FM040300 19004KT P6SM FEW250
     FM041000 VRB03KT P6SM SCT250
     FM041700 14007KT P6SM BKN120
     FM042200 10007KT P6SM SCT050 OVC080
     FM050300 03004KT P6SM BKN120=



000
FTUS41 KBOX 032330
TAFBAF
TAF
KBAF 032330Z 0400/0424 28005KT P6SM SCT250
     FM040300 VRB03KT P6SM BKN250
     FM041500 VRB03KT P6SM FEW050 BKN090=



000
FTUS41 KBOX 032330
TAFORH
TAF
KORH 032330Z 0400/0424 VRB03KT P6SM SCT250
     FM041500 VRB03KT P6SM SCT070 OVC120
     FM041800 VRB03KT P6SM FEW050 OVC070=



000
FTUS41 KBOX 032330
TAFPVD
TAF
KPVD 032330Z 0400/0424 19010KT P6SM SKC
     FM040300 18005KT P6SM SCT250
     FM041600 11005KT P6SM OVC080
     FM042200 07009KT P6SM -RA SCT035 OVC050=



000
FTUS41 KBOX 032330
TAFBAF
TAF
KBAF 032330Z 0400/0424 28005KT P6SM SCT250
     FM040300 VRB03KT P6SM BKN250
     FM041500 VRB03KT P6SM FEW050 BKN090=



000
FTUS41 KBOX 032330
TAFACK
TAF
KACK 032330Z 0400/0424 14004KT P6SM SCT250
     FM041300 12007KT P6SM SCT090 OVC200
     FM041600 10012KT P6SM SCT035 OVC080
     FM041900 09015KT 5SM -RA BR SCT015 OVC025
     FM042100 08015KT 3SM -RA BR OVC010=



000
FTUS41 KBOX 032330
TAFACK
TAF
KACK 032330Z 0400/0424 14004KT P6SM SCT250
     FM041300 12007KT P6SM SCT090 OVC200
     FM041600 10012KT P6SM SCT035 OVC080
     FM041900 09015KT 5SM -RA BR SCT015 OVC025
     FM042100 08015KT 3SM -RA BR OVC010=



000
FTUS41 KBOX 032330
TAFORH
TAF
KORH 032330Z 0400/0424 VRB03KT P6SM SCT250
     FM041500 VRB03KT P6SM SCT070 OVC120
     FM041800 VRB03KT P6SM FEW050 OVC070=



000
FTUS41 KBOX 032330
TAFPVD
TAF
KPVD 032330Z 0400/0424 19010KT P6SM SKC
     FM040300 18005KT P6SM SCT250
     FM041600 11005KT P6SM OVC080
     FM042200 07009KT P6SM -RA SCT035 OVC050=



000
FTUS41 KBOX 032330
TAFBOS
TAF
KBOS 032330Z 0400/0506 13005KT P6SM SKC
     FM040300 19004KT P6SM FEW250
     FM041000 VRB03KT P6SM SCT250
     FM041700 14007KT P6SM BKN120
     FM042200 10007KT P6SM SCT050 OVC080
     FM050300 03004KT P6SM BKN120=



000
FTUS41 KBOX 032330
TAFBDL
TAF
KBDL 032330Z 0400/0506 25005KT P6SM SCT250
     FM040500 VRB03KT P6SM BKN250
     FM041400 07004KT P6SM BKN090
     FM042000 06005KT P6SM -RA SCT035 OVC070
     FM050000 VRB03KT P6SM SCT050 BKN100
     FM050500 00000KT P6SM BKN250=



000
FTUS41 KBOX 032114 AAA
TAFACK
TAF AMD
KACK 032114Z 0321/0418 14008KT P6SM SKC
     FM040000 16005KT P6SM FEW250
     FM041400 10009KT P6SM OVC100
     FM041600 09013KT P6SM OVC050=



000
FTUS41 KBOX 032114 AAA
TAFACK
TAF AMD
KACK 032114Z 0321/0418 14008KT P6SM SKC
     FM040000 16005KT P6SM FEW250
     FM041400 10009KT P6SM OVC100
     FM041600 09013KT P6SM OVC050=



000
FTUS41 KBOX 032114 AAA
TAFACK
TAF AMD
KACK 032114Z 0321/0418 14008KT P6SM SKC
     FM040000 16005KT P6SM FEW250
     FM041400 10009KT P6SM OVC100
     FM041600 09013KT P6SM OVC050=



000
FTUS41 KBOX 032114 AAA
TAFACK
TAF AMD
KACK 032114Z 0321/0418 14008KT P6SM SKC
     FM040000 16005KT P6SM FEW250
     FM041400 10009KT P6SM OVC100
     FM041600 09013KT P6SM OVC050=



000
FTUS41 KBOX 032036 AAA
TAFPVD
TAF AMD
KPVD 032036Z 0321/0418 16010KT P6SM FEW060
     FM040000 18006KT P6SM FEW250
     FM041500 00000KT P6SM OVC100=



000
FTUS41 KBOX 032036 AAA
TAFPVD
TAF AMD
KPVD 032036Z 0321/0418 16010KT P6SM FEW060
     FM040000 18006KT P6SM FEW250
     FM041500 00000KT P6SM OVC100=



000
FTUS41 KBOX 032036 AAA
TAFBDL
TAF AMD
KBDL 032036Z 0321/0424 00000KT P6SM FEW060
     FM041300 09003KT P6SM OVC100
     FM041800 02005KT P6SM OVC050=



000
FTUS41 KBOX 032036 AAA
TAFBDL
TAF AMD
KBDL 032036Z 0321/0424 00000KT P6SM FEW060
     FM041300 09003KT P6SM OVC100
     FM041800 02005KT P6SM OVC050=



000
FTUS41 KBOX 032036 AAA
TAFBOS
TAF AMD
KBOS 032036Z 0321/0424 13010KT P6SM FEW060
     FM040000 18006KT P6SM SKC
     FM041500 14007KT P6SM OVC140=



000
FTUS41 KBOX 032036 AAA
TAFBOS
TAF AMD
KBOS 032036Z 0321/0424 13010KT P6SM FEW060
     FM040000 18006KT P6SM SKC
     FM041500 14007KT P6SM OVC140=



    US Dept of Commerce
    National Oceanic and Atmospheric Administration
    National Weather Service
    1325 East West Highway
    Silver Spring, MD 20910
    Page Author: NWS Internet Services Team
Disclaimer
Information Quality
Credits
Glossary
Privacy Policy
Freedom of Information Act (FOIA)
About Us
Career Opportunities